sensor_id;sensor_type;location;lat;lon;timestamp;P1;durP1;ratioP1;P2;durP2;ratioP2
84411;SDS011;74609;44.028;20.950;2024-03-02T00:02:13;6.25;;;3.53;;
84411;SDS011;74609;44.028;20.950;2024-03-02T00:04:39;5.88;;;3.50;;
84411;SDS011;74609;44.028;20.950;2024-03-02T00:07:06;5.25;;;3.67;;
84411;SDS011;74609;44.028;20.950;2024-03-02T00:09:32;7.32;;;3.78;;
84411;SDS011;74609;44.028;20.950;2024-03-02T00:11:59;6.20;;;3.90;;
84411;SDS011;74609;44.028;20.950;2024-03-02T00:14:28;5.53;;;3.72;;
84411;SDS011;74609;44.028;20.950;2024-03-02T00:16:55;4.60;;;2.92;;
84411;SDS011;74609;44.028;20.950;2024-03-02T00:19:21;5.85;;;3.78;;
84411;SDS011;74609;44.028;20.950;2024-03-02T00:21:48;4.53;;;3.35;;
84411;SDS011;74609;44.028;20.950;2024-03-02T00:24:21;4.78;;;3.35;;
84411;SDS011;74609;44.028;20.950;2024-03-02T00:26:47;6.30;;;3.53;;
84411;SDS011;74609;44.028;20.950;2024-03-02T00:29:15;6.57;;;4.03;;
84411;SDS011;74609;44.028;20.950;2024-03-02T00:31:42;4.80;;;3.33;;
84411;SDS011;74609;44.028;20.950;2024-03-02T00:34:08;5.82;;;3.20;;
84411;SDS011;74609;44.028;20.950;2024-03-02T00:36:36;5.43;;;3.47;;
84411;SDS011;74609;44.028;20.950;2024-03-02T00:39:02;5.30;;;3.38;;
84411;SDS011;74609;44.028;20.950;2024-03-02T00:41:31;5.82;;;3.40;;
84411;SDS011;74609;44.028;20.950;2024-03-02T00:46:30;5.30;;;3.10;;
84411;SDS011;74609;44.028;20.950;2024-03-02T00:48:59;6.80;;;3.60;;
84411;SDS011;74609;44.028;20.950;2024-03-02T00:51:26;5.65;;;4.07;;
84411;SDS011;74609;44.028;20.950;2024-03-02T00:53:53;4.75;;;3.63;;
84411;SDS011;74609;44.028;20.950;2024-03-02T00:56:21;5.22;;;3.67;;
84411;SDS011;74609;44.028;20.950;2024-03-02T00:58:48;4.93;;;3.65;;
84411;SDS011;74609;44.028;20.950;2024-03-02T01:01:14;4.20;;;2.90;;
84411;SDS011;74609;44.028;20.950;2024-03-02T01:03:41;3.95;;;2.88;;
84411;SDS011;74609;44.028;20.950;2024-03-02T01:06:07;3.78;;;2.90;;
84411;SDS011;74609;44.028;20.950;2024-03-02T01:08:36;4.35;;;2.92;;
84411;SDS011;74609;44.028;20.950;2024-03-02T01:11:03;6.18;;;3.63;;
84411;SDS011;74609;44.028;20.950;2024-03-02T01:13:29;7.35;;;4.35;;
84411;SDS011;74609;44.028;20.950;2024-03-02T01:15:55;4.65;;;2.83;;
84411;SDS011;74609;44.028;20.950;2024-03-02T01:18:22;4.38;;;3.00;;
84411;SDS011;74609;44.028;20.950;2024-03-02T01:20:48;4.20;;;2.72;;
84411;SDS011;74609;44.028;20.950;2024-03-02T01:23:20;4.15;;;2.95;;
84411;SDS011;74609;44.028;20.950;2024-03-02T01:25:49;4.38;;;2.80;;
84411;SDS011;74609;44.028;20.950;2024-03-02T01:28:15;3.92;;;2.65;;
84411;SDS011;74609;44.028;20.950;2024-03-02T01:30:42;4.55;;;2.75;;
84411;SDS011;74609;44.028;20.950;2024-03-02T01:33:08;3.78;;;2.80;;
84411;SDS011;74609;44.028;20.950;2024-03-02T01:35:34;3.20;;;2.70;;
84411;SDS011;74609;44.028;20.950;2024-03-02T01:38:01;4.63;;;3.03;;
84411;SDS011;74609;44.028;20.950;2024-03-02T01:40:27;4.47;;;2.80;;
84411;SDS011;74609;44.028;20.950;2024-03-02T01:42:53;4.03;;;2.80;;
84411;SDS011;74609;44.028;20.950;2024-03-02T01:45:20;2.70;;;2.25;;
84411;SDS011;74609;44.028;20.950;2024-03-02T01:47:46;3.72;;;2.58;;
84411;SDS011;74609;44.028;20.950;2024-03-02T01:50:12;4.97;;;3.67;;
84411;SDS011;74609;44.028;20.950;2024-03-02T01:52:39;4.35;;;2.88;;
84411;SDS011;74609;44.028;20.950;2024-03-02T01:55:05;4.45;;;3.45;;
84411;SDS011;74609;44.028;20.950;2024-03-02T01:57:32;4.72;;;3.40;;
84411;SDS011;74609;44.028;20.950;2024-03-02T01:59:58;3.70;;;2.78;;
84411;SDS011;74609;44.028;20.950;2024-03-02T02:02:25;5.13;;;3.50;;
84411;SDS011;74609;44.028;20.950;2024-03-02T02:04:51;4.78;;;3.03;;
84411;SDS011;74609;44.028;20.950;2024-03-02T02:07:17;5.72;;;3.92;;
84411;SDS011;74609;44.028;20.950;2024-03-02T02:09:44;3.83;;;2.53;;
84411;SDS011;74609;44.028;20.950;2024-03-02T02:12:10;4.82;;;3.00;;
84411;SDS011;74609;44.028;20.950;2024-03-02T02:14:36;5.30;;;3.40;;
84411;SDS011;74609;44.028;20.950;2024-03-02T02:17:04;3.55;;;2.97;;
84411;SDS011;74609;44.028;20.950;2024-03-02T02:19:31;3.78;;;2.60;;
84411;SDS011;74609;44.028;20.950;2024-03-02T02:21:57;3.67;;;2.67;;
84411;SDS011;74609;44.028;20.950;2024-03-02T02:24:23;5.53;;;3.05;;
84411;SDS011;74609;44.028;20.950;2024-03-02T02:26:49;5.55;;;3.38;;
84411;SDS011;74609;44.028;20.950;2024-03-02T02:29:15;4.57;;;2.65;;
84411;SDS011;74609;44.028;20.950;2024-03-02T02:31:41;4.93;;;2.92;;
84411;SDS011;74609;44.028;20.950;2024-03-02T02:34:07;5.03;;;2.78;;
84411;SDS011;74609;44.028;20.950;2024-03-02T02:36:34;4.07;;;2.78;;
84411;SDS011;74609;44.028;20.950;2024-03-02T02:39:03;4.32;;;2.42;;
84411;SDS011;74609;44.028;20.950;2024-03-02T02:41:30;3.75;;;2.80;;
84411;SDS011;74609;44.028;20.950;2024-03-02T02:43:56;5.07;;;3.50;;
84411;SDS011;74609;44.028;20.950;2024-03-02T02:46:22;4.47;;;3.50;;
84411;SDS011;74609;44.028;20.950;2024-03-02T02:48:48;5.68;;;2.97;;
84411;SDS011;74609;44.028;20.950;2024-03-02T02:51:16;4.13;;;3.25;;
84411;SDS011;74609;44.028;20.950;2024-03-02T02:53:43;5.15;;;3.17;;
84411;SDS011;74609;44.028;20.950;2024-03-02T02:56:09;4.07;;;2.90;;
84411;SDS011;74609;44.028;20.950;2024-03-02T02:58:35;4.18;;;2.55;;
84411;SDS011;74609;44.028;20.950;2024-03-02T03:01:01;3.15;;;2.15;;
84411;SDS011;74609;44.028;20.950;2024-03-02T03:03:27;4.35;;;2.20;;
84411;SDS011;74609;44.028;20.950;2024-03-02T03:05:53;3.78;;;2.47;;
84411;SDS011;74609;44.028;20.950;2024-03-02T03:08:20;4.00;;;2.80;;
84411;SDS011;74609;44.028;20.950;2024-03-02T03:10:48;3.70;;;2.85;;
84411;SDS011;74609;44.028;20.950;2024-03-02T03:13:14;4.40;;;3.03;;
84411;SDS011;74609;44.028;20.950;2024-03-02T03:15:40;3.97;;;2.78;;
84411;SDS011;74609;44.028;20.950;2024-03-02T03:18:06;4.65;;;3.08;;
84411;SDS011;74609;44.028;20.950;2024-03-02T03:20:33;3.90;;;2.70;;
84411;SDS011;74609;44.028;20.950;2024-03-02T03:22:59;5.10;;;2.83;;
84411;SDS011;74609;44.028;20.950;2024-03-02T03:25:25;3.22;;;2.50;;
84411;SDS011;74609;44.028;20.950;2024-03-02T03:27:51;3.58;;;2.50;;
84411;SDS011;74609;44.028;20.950;2024-03-02T03:30:18;4.93;;;2.88;;
84411;SDS011;74609;44.028;20.950;2024-03-02T03:32:44;4.10;;;2.53;;
84411;SDS011;74609;44.028;20.950;2024-03-02T03:35:10;4.00;;;2.80;;
84411;SDS011;74609;44.028;20.950;2024-03-02T03:37:38;3.33;;;2.17;;
84411;SDS011;74609;44.028;20.950;2024-03-02T03:40:04;4.55;;;2.67;;
84411;SDS011;74609;44.028;20.950;2024-03-02T03:42:37;3.28;;;2.20;;
84411;SDS011;74609;44.028;20.950;2024-03-02T03:45:04;3.33;;;2.72;;
84411;SDS011;74609;44.028;20.950;2024-03-02T03:47:33;3.08;;;2.63;;
84411;SDS011;74609;44.028;20.950;2024-03-02T03:49:59;3.47;;;2.10;;
84411;SDS011;74609;44.028;20.950;2024-03-02T03:52:25;3.10;;;2.60;;
84411;SDS011;74609;44.028;20.950;2024-03-02T03:54:51;3.45;;;2.33;;
84411;SDS011;74609;44.028;20.950;2024-03-02T03:57:17;3.33;;;2.45;;
84411;SDS011;74609;44.028;20.950;2024-03-02T03:59:43;4.55;;;2.50;;
84411;SDS011;74609;44.028;20.950;2024-03-02T04:02:11;4.07;;;2.20;;
84411;SDS011;74609;44.028;20.950;2024-03-02T04:04:38;4.18;;;2.22;;
84411;SDS011;74609;44.028;20.950;2024-03-02T04:07:04;3.72;;;2.65;;
84411;SDS011;74609;44.028;20.950;2024-03-02T04:09:30;3.97;;;2.80;;
84411;SDS011;74609;44.028;20.950;2024-03-02T04:11:56;3.83;;;2.28;;
84411;SDS011;74609;44.028;20.950;2024-03-02T04:14:22;4.20;;;2.30;;
84411;SDS011;74609;44.028;20.950;2024-03-02T04:16:48;3.20;;;2.28;;
84411;SDS011;74609;44.028;20.950;2024-03-02T04:19:14;4.60;;;2.10;;
84411;SDS011;74609;44.028;20.950;2024-03-02T04:21:40;3.45;;;2.40;;
84411;SDS011;74609;44.028;20.950;2024-03-02T04:24:06;4.30;;;2.42;;
84411;SDS011;74609;44.028;20.950;2024-03-02T04:26:33;3.47;;;2.35;;
84411;SDS011;74609;44.028;20.950;2024-03-02T04:28:59;3.45;;;2.45;;
84411;SDS011;74609;44.028;20.950;2024-03-02T04:31:25;3.78;;;2.63;;
84411;SDS011;74609;44.028;20.950;2024-03-02T04:33:51;3.33;;;2.50;;
84411;SDS011;74609;44.028;20.950;2024-03-02T04:36:17;3.35;;;2.47;;
84411;SDS011;74609;44.028;20.950;2024-03-02T04:38:43;4.35;;;2.95;;
84411;SDS011;74609;44.028;20.950;2024-03-02T04:41:09;3.40;;;2.15;;
84411;SDS011;74609;44.028;20.950;2024-03-02T04:43:35;2.95;;;1.90;;
84411;SDS011;74609;44.028;20.950;2024-03-02T04:46:01;2.08;;;1.77;;
84411;SDS011;74609;44.028;20.950;2024-03-02T04:48:28;2.95;;;2.50;;
84411;SDS011;74609;44.028;20.950;2024-03-02T04:50:54;3.30;;;2.15;;
84411;SDS011;74609;44.028;20.950;2024-03-02T04:53:20;2.75;;;2.33;;
84411;SDS011;74609;44.028;20.950;2024-03-02T04:55:46;3.67;;;2.53;;
84411;SDS011;74609;44.028;20.950;2024-03-02T04:58:31;3.88;;;2.40;;
84411;SDS011;74609;44.028;20.950;2024-03-02T05:00:57;3.30;;;2.67;;
84411;SDS011;74609;44.028;20.950;2024-03-02T05:03:23;2.65;;;2.10;;
84411;SDS011;74609;44.028;20.950;2024-03-02T05:05:49;4.38;;;2.30;;
84411;SDS011;74609;44.028;20.950;2024-03-02T05:08:15;4.57;;;2.70;;
84411;SDS011;74609;44.028;20.950;2024-03-02T05:10:42;4.57;;;2.80;;
84411;SDS011;74609;44.028;20.950;2024-03-02T05:13:08;3.00;;;2.38;;
84411;SDS011;74609;44.028;20.950;2024-03-02T05:15:34;3.45;;;2.50;;
84411;SDS011;74609;44.028;20.950;2024-03-02T05:18:00;4.15;;;2.47;;
84411;SDS011;74609;44.028;20.950;2024-03-02T05:20:30;6.10;;;2.78;;
84411;SDS011;74609;44.028;20.950;2024-03-02T05:22:56;3.85;;;2.40;;
84411;SDS011;74609;44.028;20.950;2024-03-02T05:25:22;3.88;;;2.30;;
84411;SDS011;74609;44.028;20.950;2024-03-02T05:27:48;3.33;;;2.50;;
84411;SDS011;74609;44.028;20.950;2024-03-02T05:30:14;3.15;;;2.40;;
84411;SDS011;74609;44.028;20.950;2024-03-02T05:32:40;3.85;;;2.50;;
84411;SDS011;74609;44.028;20.950;2024-03-02T05:35:06;3.33;;;2.28;;
84411;SDS011;74609;44.028;20.950;2024-03-02T05:37:33;3.00;;;2.40;;
84411;SDS011;74609;44.028;20.950;2024-03-02T05:39:59;2.88;;;2.20;;
84411;SDS011;74609;44.028;20.950;2024-03-02T05:42:25;6.45;;;2.28;;
84411;SDS011;74609;44.028;20.950;2024-03-02T05:44:52;3.00;;;2.53;;
84411;SDS011;74609;44.028;20.950;2024-03-02T05:47:19;3.38;;;2.00;;
84411;SDS011;74609;44.028;20.950;2024-03-02T05:49:45;3.92;;;2.30;;
84411;SDS011;74609;44.028;20.950;2024-03-02T05:52:12;3.92;;;2.35;;
84411;SDS011;74609;44.028;20.950;2024-03-02T05:54:38;3.72;;;2.92;;
84411;SDS011;74609;44.028;20.950;2024-03-02T05:57:04;3.40;;;2.05;;
84411;SDS011;74609;44.028;20.950;2024-03-02T05:59:52;2.55;;;2.08;;
84411;SDS011;74609;44.028;20.950;2024-03-02T06:02:18;4.00;;;2.40;;
84411;SDS011;74609;44.028;20.950;2024-03-02T06:04:44;3.67;;;2.40;;
84411;SDS011;74609;44.028;20.950;2024-03-02T06:07:10;3.15;;;2.40;;
84411;SDS011;74609;44.028;20.950;2024-03-02T06:09:37;3.50;;;2.65;;
84411;SDS011;74609;44.028;20.950;2024-03-02T06:12:05;3.78;;;2.05;;
84411;SDS011;74609;44.028;20.950;2024-03-02T06:14:31;4.75;;;2.33;;
84411;SDS011;74609;44.028;20.950;2024-03-02T06:16:57;4.13;;;2.78;;
84411;SDS011;74609;44.028;20.950;2024-03-02T06:19:24;4.38;;;2.67;;
84411;SDS011;74609;44.028;20.950;2024-03-02T06:21:50;5.15;;;3.17;;
84411;SDS011;74609;44.028;20.950;2024-03-02T06:24:16;6.07;;;2.97;;
84411;SDS011;74609;44.028;20.950;2024-03-02T06:26:42;4.13;;;2.78;;
84411;SDS011;74609;44.028;20.950;2024-03-02T06:29:08;3.63;;;2.55;;
84411;SDS011;74609;44.028;20.950;2024-03-02T06:31:34;3.72;;;2.55;;
84411;SDS011;74609;44.028;20.950;2024-03-02T06:34:00;3.58;;;2.60;;
84411;SDS011;74609;44.028;20.950;2024-03-02T06:36:28;4.15;;;2.83;;
84411;SDS011;74609;44.028;20.950;2024-03-02T06:38:54;3.92;;;2.72;;
84411;SDS011;74609;44.028;20.950;2024-03-02T06:41:20;3.42;;;2.40;;
84411;SDS011;74609;44.028;20.950;2024-03-02T06:43:46;3.83;;;2.83;;
84411;SDS011;74609;44.028;20.950;2024-03-02T06:46:12;5.05;;;2.45;;
84411;SDS011;74609;44.028;20.950;2024-03-02T06:48:40;3.65;;;2.40;;
84411;SDS011;74609;44.028;20.950;2024-03-02T06:51:06;5.85;;;2.47;;
84411;SDS011;74609;44.028;20.950;2024-03-02T06:53:32;5.25;;;3.00;;
84411;SDS011;74609;44.028;20.950;2024-03-02T06:55:58;3.70;;;2.35;;
84411;SDS011;74609;44.028;20.950;2024-03-02T06:58:25;4.28;;;2.67;;
84411;SDS011;74609;44.028;20.950;2024-03-02T07:00:51;4.32;;;2.83;;
84411;SDS011;74609;44.028;20.950;2024-03-02T07:03:17;4.72;;;2.35;;
84411;SDS011;74609;44.028;20.950;2024-03-02T07:05:44;2.92;;;2.22;;
84411;SDS011;74609;44.028;20.950;2024-03-02T07:08:10;3.38;;;2.05;;
84411;SDS011;74609;44.028;20.950;2024-03-02T07:10:36;5.00;;;2.97;;
84411;SDS011;74609;44.028;20.950;2024-03-02T07:13:02;3.50;;;2.35;;
84411;SDS011;74609;44.028;20.950;2024-03-02T07:15:28;3.58;;;2.42;;
84411;SDS011;74609;44.028;20.950;2024-03-02T07:18:03;4.07;;;2.90;;
84411;SDS011;74609;44.028;20.950;2024-03-02T07:20:29;6.18;;;2.60;;
84411;SDS011;74609;44.028;20.950;2024-03-02T07:22:55;2.53;;;2.10;;
84411;SDS011;74609;44.028;20.950;2024-03-02T07:25:22;4.05;;;2.50;;
84411;SDS011;74609;44.028;20.950;2024-03-02T07:27:48;3.28;;;2.40;;
84411;SDS011;74609;44.028;20.950;2024-03-02T07:30:14;3.95;;;2.20;;
84411;SDS011;74609;44.028;20.950;2024-03-02T07:32:43;5.13;;;2.20;;
84411;SDS011;74609;44.028;20.950;2024-03-02T07:35:11;2.95;;;2.10;;
84411;SDS011;74609;44.028;20.950;2024-03-02T07:37:38;4.15;;;2.15;;
84411;SDS011;74609;44.028;20.950;2024-03-02T07:40:04;6.72;;;2.20;;
84411;SDS011;74609;44.028;20.950;2024-03-02T07:42:30;6.38;;;2.38;;
84411;SDS011;74609;44.028;20.950;2024-03-02T07:44:56;3.97;;;2.10;;
84411;SDS011;74609;44.028;20.950;2024-03-02T07:47:22;3.83;;;2.05;;
84411;SDS011;74609;44.028;20.950;2024-03-02T07:49:48;5.22;;;2.00;;
84411;SDS011;74609;44.028;20.950;2024-03-02T07:52:14;4.35;;;2.08;;
84411;SDS011;74609;44.028;20.950;2024-03-02T07:54:40;5.10;;;2.65;;
84411;SDS011;74609;44.028;20.950;2024-03-02T07:57:06;4.18;;;2.50;;
84411;SDS011;74609;44.028;20.950;2024-03-02T07:59:33;3.10;;;2.00;;
84411;SDS011;74609;44.028;20.950;2024-03-02T08:01:59;4.95;;;2.20;;
84411;SDS011;74609;44.028;20.950;2024-03-02T08:04:25;4.85;;;2.08;;
84411;SDS011;74609;44.028;20.950;2024-03-02T08:06:51;2.88;;;2.10;;
84411;SDS011;74609;44.028;20.950;2024-03-02T08:09:19;3.17;;;1.73;;
84411;SDS011;74609;44.028;20.950;2024-03-02T08:11:45;6.15;;;1.88;;
84411;SDS011;74609;44.028;20.950;2024-03-02T08:14:11;12.52;;;4.50;;
84411;SDS011;74609;44.028;20.950;2024-03-02T08:16:37;5.00;;;2.28;;
84411;SDS011;74609;44.028;20.950;2024-03-02T08:19:03;4.85;;;2.42;;
84411;SDS011;74609;44.028;20.950;2024-03-02T08:21:29;6.47;;;2.70;;
84411;SDS011;74609;44.028;20.950;2024-03-02T08:23:57;3.08;;;2.00;;
84411;SDS011;74609;44.028;20.950;2024-03-02T08:26:23;2.92;;;2.20;;
84411;SDS011;74609;44.028;20.950;2024-03-02T08:28:49;3.92;;;2.28;;
84411;SDS011;74609;44.028;20.950;2024-03-02T08:31:15;6.00;;;2.08;;
84411;SDS011;74609;44.028;20.950;2024-03-02T08:33:48;3.75;;;2.08;;
84411;SDS011;74609;44.028;20.950;2024-03-02T08:36:14;3.25;;;2.10;;
84411;SDS011;74609;44.028;20.950;2024-03-02T08:38:41;4.47;;;1.85;;
84411;SDS011;74609;44.028;20.950;2024-03-02T08:41:07;4.43;;;2.22;;
84411;SDS011;74609;44.028;20.950;2024-03-02T08:43:33;4.25;;;2.15;;
84411;SDS011;74609;44.028;20.950;2024-03-02T08:45:59;2.83;;;2.03;;
84411;SDS011;74609;44.028;20.950;2024-03-02T08:48:26;4.30;;;1.92;;
84411;SDS011;74609;44.028;20.950;2024-03-02T08:50:52;2.17;;;1.70;;
84411;SDS011;74609;44.028;20.950;2024-03-02T08:53:18;2.47;;;1.92;;
84411;SDS011;74609;44.028;20.950;2024-03-02T08:55:45;2.95;;;2.13;;
84411;SDS011;74609;44.028;20.950;2024-03-02T08:58:12;3.63;;;1.90;;
84411;SDS011;74609;44.028;20.950;2024-03-02T09:00:38;4.00;;;2.22;;
84411;SDS011;74609;44.028;20.950;2024-03-02T09:03:04;4.88;;;2.22;;
84411;SDS011;74609;44.028;20.950;2024-03-02T09:05:30;7.82;;;2.20;;
84411;SDS011;74609;44.028;20.950;2024-03-02T09:07:56;4.68;;;2.65;;
84411;SDS011;74609;44.028;20.950;2024-03-02T09:10:22;6.93;;;2.58;;
84411;SDS011;74609;44.028;20.950;2024-03-02T09:12:48;7.45;;;2.45;;
84411;SDS011;74609;44.028;20.950;2024-03-02T09:15:14;4.43;;;2.30;;
84411;SDS011;74609;44.028;20.950;2024-03-02T09:17:41;4.75;;;2.47;;
84411;SDS011;74609;44.028;20.950;2024-03-02T09:20:07;5.93;;;2.60;;
84411;SDS011;74609;44.028;20.950;2024-03-02T09:22:33;5.13;;;2.35;;
84411;SDS011;74609;44.028;20.950;2024-03-02T09:24:59;3.28;;;2.47;;
84411;SDS011;74609;44.028;20.950;2024-03-02T09:27:25;3.95;;;2.22;;
84411;SDS011;74609;44.028;20.950;2024-03-02T09:29:51;5.78;;;2.72;;
84411;SDS011;74609;44.028;20.950;2024-03-02T09:32:17;6.15;;;2.30;;
84411;SDS011;74609;44.028;20.950;2024-03-02T09:34:44;5.47;;;2.33;;
84411;SDS011;74609;44.028;20.950;2024-03-02T09:37:10;5.55;;;2.20;;
84411;SDS011;74609;44.028;20.950;2024-03-02T09:39:36;5.00;;;2.40;;
84411;SDS011;74609;44.028;20.950;2024-03-02T09:42:03;2.67;;;2.20;;
84411;SDS011;74609;44.028;20.950;2024-03-02T09:44:32;3.55;;;2.10;;
84411;SDS011;74609;44.028;20.950;2024-03-02T09:46:59;2.90;;;2.17;;
84411;SDS011;74609;44.028;20.950;2024-03-02T09:49:25;3.75;;;2.20;;
84411;SDS011;74609;44.028;20.950;2024-03-02T09:51:51;4.30;;;2.58;;
84411;SDS011;74609;44.028;20.950;2024-03-02T09:54:17;3.75;;;2.40;;
84411;SDS011;74609;44.028;20.950;2024-03-02T09:56:43;5.00;;;2.22;;
84411;SDS011;74609;44.028;20.950;2024-03-02T09:59:09;3.30;;;2.15;;
84411;SDS011;74609;44.028;20.950;2024-03-02T10:01:36;3.72;;;2.25;;
84411;SDS011;74609;44.028;20.950;2024-03-02T10:04:02;4.55;;;2.53;;
84411;SDS011;74609;44.028;20.950;2024-03-02T10:06:28;3.28;;;1.90;;
84411;SDS011;74609;44.028;20.950;2024-03-02T10:08:54;4.00;;;2.22;;
84411;SDS011;74609;44.028;20.950;2024-03-02T10:14:04;5.18;;;2.40;;
84411;SDS011;74609;44.028;20.950;2024-03-02T10:16:33;2.88;;;1.90;;
84411;SDS011;74609;44.028;20.950;2024-03-02T10:19:11;4.15;;;2.30;;
84411;SDS011;74609;44.028;20.950;2024-03-02T10:21:41;3.78;;;2.10;;
84411;SDS011;74609;44.028;20.950;2024-03-02T10:24:07;4.30;;;1.92;;
84411;SDS011;74609;44.028;20.950;2024-03-02T10:26:33;4.63;;;2.03;;
84411;SDS011;74609;44.028;20.950;2024-03-02T10:28:59;3.10;;;2.03;;
84411;SDS011;74609;44.028;20.950;2024-03-02T10:31:26;5.40;;;2.20;;
84411;SDS011;74609;44.028;20.950;2024-03-02T10:33:56;3.90;;;2.22;;
84411;SDS011;74609;44.028;20.950;2024-03-02T10:38:51;2.85;;;1.75;;
84411;SDS011;74609;44.028;20.950;2024-03-02T10:41:22;3.58;;;2.10;;
84411;SDS011;74609;44.028;20.950;2024-03-02T10:43:50;3.25;;;2.00;;
84411;SDS011;74609;44.028;20.950;2024-03-02T10:46:19;3.65;;;1.88;;
84411;SDS011;74609;44.028;20.950;2024-03-02T10:48:46;3.22;;;2.15;;
84411;SDS011;74609;44.028;20.950;2024-03-02T10:51:12;7.15;;;2.58;;
84411;SDS011;74609;44.028;20.950;2024-03-02T10:53:38;4.75;;;2.40;;
84411;SDS011;74609;44.028;20.950;2024-03-02T10:56:04;5.15;;;2.22;;
84411;SDS011;74609;44.028;20.950;2024-03-02T10:58:33;3.60;;;1.98;;
84411;SDS011;74609;44.028;20.950;2024-03-02T11:01:00;4.63;;;2.10;;
84411;SDS011;74609;44.028;20.950;2024-03-02T11:03:29;3.72;;;2.03;;
84411;SDS011;74609;44.028;20.950;2024-03-02T11:05:55;3.00;;;2.25;;
84411;SDS011;74609;44.028;20.950;2024-03-02T11:08:22;2.80;;;1.80;;
84411;SDS011;74609;44.028;20.950;2024-03-02T11:10:50;3.22;;;2.10;;
84411;SDS011;74609;44.028;20.950;2024-03-02T11:13:21;6.47;;;2.25;;
84411;SDS011;74609;44.028;20.950;2024-03-02T11:15:49;2.65;;;1.67;;
84411;SDS011;74609;44.028;20.950;2024-03-02T11:18:17;2.92;;;1.80;;
84411;SDS011;74609;44.028;20.950;2024-03-02T11:20:44;3.63;;;1.92;;
84411;SDS011;74609;44.028;20.950;2024-03-02T11:23:11;2.20;;;1.70;;
84411;SDS011;74609;44.028;20.950;2024-03-02T11:25:37;3.95;;;2.72;;
84411;SDS011;74609;44.028;20.950;2024-03-02T11:28:07;2.38;;;1.92;;
84411;SDS011;74609;44.028;20.950;2024-03-02T11:35:41;3.15;;;1.90;;
84411;SDS011;74609;44.028;20.950;2024-03-02T11:38:08;3.65;;;2.13;;
84411;SDS011;74609;44.028;20.950;2024-03-02T11:40:34;3.33;;;1.55;;
84411;SDS011;74609;44.028;20.950;2024-03-02T11:43:01;4.68;;;2.20;;
84411;SDS011;74609;44.028;20.950;2024-03-02T11:45:27;2.67;;;1.70;;
84411;SDS011;74609;44.028;20.950;2024-03-02T11:47:53;4.38;;;2.03;;
84411;SDS011;74609;44.028;20.950;2024-03-02T11:50:29;3.05;;;1.63;;
84411;SDS011;74609;44.028;20.950;2024-03-02T11:52:56;3.17;;;1.80;;
84411;SDS011;74609;44.028;20.950;2024-03-02T11:55:22;4.47;;;1.90;;
84411;SDS011;74609;44.028;20.950;2024-03-02T11:57:49;6.95;;;1.80;;
84411;SDS011;74609;44.028;20.950;2024-03-02T12:00:19;1.88;;;1.63;;
84411;SDS011;74609;44.028;20.950;2024-03-02T12:03:00;2.20;;;1.67;;
84411;SDS011;74609;44.028;20.950;2024-03-02T12:05:26;6.05;;;2.20;;
84411;SDS011;74609;44.028;20.950;2024-03-02T12:07:56;4.50;;;1.90;;
84411;SDS011;74609;44.028;20.950;2024-03-02T12:10:23;2.25;;;1.83;;
84411;SDS011;74609;44.028;20.950;2024-03-02T12:12:58;3.70;;;1.70;;
84411;SDS011;74609;44.028;20.950;2024-03-02T12:15:25;8.20;;;2.03;;
84411;SDS011;74609;44.028;20.950;2024-03-02T12:17:52;5.38;;;2.00;;
84411;SDS011;74609;44.028;20.950;2024-03-02T12:20:19;2.40;;;1.83;;
84411;SDS011;74609;44.028;20.950;2024-03-02T12:22:45;4.13;;;1.95;;
84411;SDS011;74609;44.028;20.950;2024-03-02T12:25:11;2.22;;;2.03;;
84411;SDS011;74609;44.028;20.950;2024-03-02T12:27:38;2.72;;;1.65;;
84411;SDS011;74609;44.028;20.950;2024-03-02T12:30:05;1.92;;;1.73;;
84411;SDS011;74609;44.028;20.950;2024-03-02T12:32:35;3.38;;;1.75;;
84411;SDS011;74609;44.028;20.950;2024-03-02T12:35:03;2.92;;;1.70;;
84411;SDS011;74609;44.028;20.950;2024-03-02T12:37:30;3.25;;;1.60;;
84411;SDS011;74609;44.028;20.950;2024-03-02T12:39:56;4.55;;;2.25;;
84411;SDS011;74609;44.028;20.950;2024-03-02T12:42:23;6.38;;;2.10;;
84411;SDS011;74609;44.028;20.950;2024-03-02T12:44:53;6.45;;;3.50;;
84411;SDS011;74609;44.028;20.950;2024-03-02T12:47:20;6.57;;;3.38;;
84411;SDS011;74609;44.028;20.950;2024-03-02T12:49:46;6.18;;;2.97;;
84411;SDS011;74609;44.028;20.950;2024-03-02T12:52:15;7.53;;;3.72;;
84411;SDS011;74609;44.028;20.950;2024-03-02T12:54:42;8.50;;;3.97;;
84411;SDS011;74609;44.028;20.950;2024-03-02T12:57:09;8.35;;;3.85;;
84411;SDS011;74609;44.028;20.950;2024-03-02T12:59:35;8.27;;;3.83;;
84411;SDS011;74609;44.028;20.950;2024-03-02T13:02:02;6.03;;;3.47;;
84411;SDS011;74609;44.028;20.950;2024-03-02T13:04:31;7.00;;;3.72;;
84411;SDS011;74609;44.028;20.950;2024-03-02T13:06:57;7.78;;;3.40;;
84411;SDS011;74609;44.028;20.950;2024-03-02T13:09:23;8.18;;;3.22;;
84411;SDS011;74609;44.028;20.950;2024-03-02T13:11:49;7.00;;;3.42;;
84411;SDS011;74609;44.028;20.950;2024-03-02T13:14:15;7.68;;;3.05;;
84411;SDS011;74609;44.028;20.950;2024-03-02T13:16:42;6.55;;;3.25;;
84411;SDS011;74609;44.028;20.950;2024-03-02T13:19:08;6.72;;;3.30;;
84411;SDS011;74609;44.028;20.950;2024-03-02T13:21:35;6.90;;;3.20;;
84411;SDS011;74609;44.028;20.950;2024-03-02T13:24:01;9.02;;;3.20;;
84411;SDS011;74609;44.028;20.950;2024-03-02T13:26:28;8.13;;;3.70;;
84411;SDS011;74609;44.028;20.950;2024-03-02T13:28:54;6.45;;;3.35;;
84411;SDS011;74609;44.028;20.950;2024-03-02T13:31:20;7.70;;;3.33;;
84411;SDS011;74609;44.028;20.950;2024-03-02T13:33:47;6.97;;;3.05;;
84411;SDS011;74609;44.028;20.950;2024-03-02T13:36:13;7.47;;;2.90;;
84411;SDS011;74609;44.028;20.950;2024-03-02T13:38:39;7.90;;;3.42;;
84411;SDS011;74609;44.028;20.950;2024-03-02T13:41:05;5.40;;;3.13;;
84411;SDS011;74609;44.028;20.950;2024-03-02T13:43:31;6.30;;;2.92;;
84411;SDS011;74609;44.028;20.950;2024-03-02T13:45:58;7.55;;;2.97;;
84411;SDS011;74609;44.028;20.950;2024-03-02T13:48:24;6.80;;;3.35;;
84411;SDS011;74609;44.028;20.950;2024-03-02T13:50:53;5.70;;;3.03;;
84411;SDS011;74609;44.028;20.950;2024-03-02T13:53:20;6.07;;;3.50;;
84411;SDS011;74609;44.028;20.950;2024-03-02T13:55:46;5.85;;;3.08;;
84411;SDS011;74609;44.028;20.950;2024-03-02T13:58:12;4.78;;;2.42;;
84411;SDS011;74609;44.028;20.950;2024-03-02T14:00:39;5.05;;;2.20;;
84411;SDS011;74609;44.028;20.950;2024-03-02T14:03:08;2.92;;;2.22;;
84411;SDS011;74609;44.028;20.950;2024-03-02T14:05:34;4.28;;;2.28;;
84411;SDS011;74609;44.028;20.950;2024-03-02T14:08:00;10.10;;;2.85;;
84411;SDS011;74609;44.028;20.950;2024-03-02T14:10:26;4.70;;;2.63;;
84411;SDS011;74609;44.028;20.950;2024-03-02T14:12:53;5.10;;;2.67;;
84411;SDS011;74609;44.028;20.950;2024-03-02T14:15:20;4.85;;;2.50;;
84411;SDS011;74609;44.028;20.950;2024-03-02T14:17:46;5.28;;;2.67;;
84411;SDS011;74609;44.028;20.950;2024-03-02T14:20:12;3.92;;;2.40;;
84411;SDS011;74609;44.028;20.950;2024-03-02T14:22:39;3.72;;;2.50;;
84411;SDS011;74609;44.028;20.950;2024-03-02T14:25:05;5.60;;;2.97;;
84411;SDS011;74609;44.028;20.950;2024-03-02T14:27:31;4.10;;;2.70;;
84411;SDS011;74609;44.028;20.950;2024-03-02T14:29:57;5.75;;;2.42;;
84411;SDS011;74609;44.028;20.950;2024-03-02T14:32:23;4.78;;;2.30;;
84411;SDS011;74609;44.028;20.950;2024-03-02T14:34:49;4.68;;;2.50;;
84411;SDS011;74609;44.028;20.950;2024-03-02T14:37:15;5.28;;;2.55;;
84411;SDS011;74609;44.028;20.950;2024-03-02T14:39:41;8.02;;;2.40;;
84411;SDS011;74609;44.028;20.950;2024-03-02T14:42:08;9.82;;;2.50;;
84411;SDS011;74609;44.028;20.950;2024-03-02T14:44:34;4.40;;;2.33;;